createdAt,value
2022-11-22T00:03:02.435Z,-0.21
2022-11-22T00:06:04.910Z,-0.06
2022-11-22T00:09:07.423Z,-0.18
2022-11-22T00:12:09.903Z,-0.10
2022-11-22T00:15:12.820Z,0.07
2022-11-22T00:18:15.250Z,0.10
2022-11-22T00:21:17.693Z,0.22
2022-11-22T00:24:20.141Z,0.29
2022-11-22T00:27:22.602Z,0.31
2022-11-22T00:30:25.015Z,0.40
2022-11-22T00:33:27.432Z,0.39
2022-11-22T00:36:29.830Z,0.40
2022-11-22T00:39:32.579Z,0.40
2022-11-22T00:42:35.186Z,0.24
2022-11-22T00:45:37.638Z,0.21
2022-11-22T00:48:40.170Z,0.15
2022-11-22T00:51:42.588Z,0.12
2022-11-22T00:54:50.048Z,0.22
2022-11-22T00:57:55.599Z,0.23
2022-11-22T01:00:58.812Z,0.03
2022-11-22T01:04:01.409Z,0.20
2022-11-22T01:07:03.975Z,-0.20
2022-11-22T01:10:06.919Z,-0.26
2022-11-22T01:13:10.204Z,-0.13
2022-11-22T01:16:14.000Z,-0.10
2022-11-22T01:19:16.611Z,-0.19
2022-11-22T01:22:19.097Z,-0.08
2022-11-22T01:25:21.628Z,-0.10
2022-11-22T01:28:24.184Z,0.23
2022-11-22T01:31:26.656Z,0.27
2022-11-22T01:34:29.070Z,0.06
2022-11-22T01:37:31.500Z,0.25
2022-11-22T01:40:33.919Z,0.32
2022-11-22T01:43:36.346Z,0.30
2022-11-22T01:46:39.700Z,0.13
2022-11-22T01:49:51.893Z,0.13
2022-11-22T01:52:55.627Z,0.09
2022-11-22T01:56:00.212Z,0.14
2022-11-22T01:59:07.508Z,0.20
2022-11-22T02:02:09.963Z,0.11
2022-11-22T02:05:15.620Z,0.09
2022-11-22T02:08:24.353Z,0.03
2022-11-22T02:11:32.635Z,0.09
2022-11-22T02:14:37.020Z,0.13
2022-11-22T02:17:39.444Z,0.09
2022-11-22T02:20:41.936Z,0.09
2022-11-22T02:23:51.810Z,0.19
2022-11-22T02:26:54.307Z,0.19
2022-11-22T02:29:57.548Z,0.17
2022-11-22T02:33:00.042Z,0.28
2022-11-22T02:36:02.675Z,0.32
2022-11-22T02:39:05.861Z,0.06
2022-11-22T02:42:08.332Z,-0.06
2022-11-22T02:45:11.133Z,-0.19
2022-11-22T02:48:16.481Z,-0.20
2022-11-22T02:51:20.222Z,-0.22
2022-11-22T02:54:22.914Z,-0.14
2022-11-22T02:57:25.364Z,-0.28
2022-11-22T03:00:27.875Z,-0.20
2022-11-22T03:03:31.714Z,-0.12
2022-11-22T03:06:34.201Z,-0.28
2022-11-22T03:09:36.765Z,-0.18
2022-11-22T03:12:39.200Z,-0.26
2022-11-22T03:15:41.635Z,-0.25
2022-11-22T03:18:44.152Z,-0.30
2022-11-22T03:21:46.635Z,-0.17
2022-11-22T03:24:49.051Z,-0.25
2022-11-22T03:27:51.416Z,-0.14
2022-11-22T03:30:53.782Z,-0.01
2022-11-22T03:33:56.716Z,-0.05
2022-11-22T03:36:59.319Z,-0.15
2022-11-22T03:40:01.860Z,-0.09
2022-11-22T03:43:04.465Z,0.06
2022-11-22T03:46:06.899Z,-0.16
2022-11-22T03:49:10.857Z,0.05
2022-11-22T03:52:13.359Z,-0.07
2022-11-22T03:55:16.081Z,-0.20
2022-11-22T03:58:18.593Z,-0.24
2022-11-22T04:01:21.117Z,-0.17
2022-11-22T04:04:23.634Z,-0.11
2022-11-22T04:07:26.062Z,-0.19
2022-11-22T04:10:28.512Z,-0.14
2022-11-22T04:13:49.324Z,-0.28
2022-11-22T04:16:51.769Z,-0.10
2022-11-22T04:20:13.134Z,-0.22
2022-11-22T04:23:20.360Z,-0.20
2022-11-22T04:26:22.765Z,-0.17
2022-11-22T04:29:25.503Z,-0.19
2022-11-22T04:32:45.855Z,-0.20
2022-11-22T04:35:48.817Z,-0.17
2022-11-22T04:38:52.274Z,-0.19
2022-11-22T04:42:15.051Z,-0.08
2022-11-22T04:45:17.493Z,-0.10
2022-11-22T04:48:19.977Z,-0.11
2022-11-22T04:51:40.684Z,-0.17
2022-11-22T04:54:43.088Z,-0.21
2022-11-22T04:57:45.464Z,-0.19
2022-11-22T05:00:48.375Z,-0.18
2022-11-22T05:03:50.884Z,-0.23
2022-11-22T05:06:53.368Z,-0.11
2022-11-22T05:09:55.811Z,-0.12
2022-11-22T05:12:58.263Z,0.16
2022-11-22T05:16:02.312Z,0.06
2022-11-22T05:19:04.729Z,-0.10
2022-11-22T05:22:08.359Z,0.02
2022-11-22T05:25:10.948Z,-0.09
2022-11-22T05:28:13.358Z,-0.06
2022-11-22T05:31:18.430Z,-0.06
2022-11-22T05:34:20.894Z,0.00
2022-11-22T05:37:23.702Z,-0.07
2022-11-22T05:40:26.792Z,0.07
2022-11-22T05:43:29.384Z,0.07
2022-11-22T05:46:31.765Z,0.05
2022-11-22T05:49:34.331Z,0.19
2022-11-22T05:52:37.123Z,0.25
2022-11-22T05:55:39.562Z,0.30
2022-11-22T05:58:42.749Z,0.32
2022-11-22T06:01:45.258Z,0.32
2022-11-22T06:04:47.812Z,0.16
2022-11-22T06:07:50.277Z,0.22
2022-11-22T06:10:52.796Z,0.28
2022-11-22T06:13:57.660Z,0.29
2022-11-22T06:17:00.146Z,0.28
2022-11-22T06:20:06.152Z,0.14
2022-11-22T06:23:09.130Z,0.16
2022-11-22T06:26:13.844Z,0.31
2022-11-22T06:29:16.325Z,0.21
2022-11-22T06:32:18.857Z,0.26
2022-11-22T06:35:21.449Z,0.29
2022-11-22T06:38:23.975Z,0.39
2022-11-22T06:41:28.651Z,0.35
2022-11-22T06:44:31.093Z,0.38
2022-11-22T06:47:33.809Z,0.40
2022-11-22T06:50:36.260Z,0.46
2022-11-22T06:53:47.264Z,0.56
2022-11-22T06:56:50.820Z,0.50
2022-11-22T06:59:53.349Z,0.55
2022-11-22T07:02:55.711Z,0.67
2022-11-22T07:05:58.355Z,0.69
2022-11-22T07:09:03.715Z,0.57
2022-11-22T07:12:06.733Z,0.51
2022-11-22T07:15:09.810Z,0.79
2022-11-22T07:18:12.220Z,0.78
2022-11-22T07:21:23.336Z,0.67
2022-11-22T07:24:25.867Z,0.77
2022-11-22T07:27:28.470Z,0.71
2022-11-22T07:30:30.991Z,0.81
2022-11-22T07:33:33.611Z,0.92
2022-11-22T07:36:36.022Z,0.87
2022-11-22T07:39:39.863Z,0.84
2022-11-22T07:42:43.056Z,1.01
2022-11-22T07:45:48.681Z,1.06
2022-11-22T07:48:51.840Z,1.12
2022-11-22T07:51:54.381Z,1.12
2022-11-22T07:54:58.143Z,1.20
2022-11-22T07:58:02.755Z,1.11
2022-11-22T08:01:12.992Z,1.25
2022-11-22T08:04:18.174Z,1.23
2022-11-22T08:07:23.232Z,1.34
2022-11-22T08:10:26.742Z,1.23
2022-11-22T08:13:29.945Z,1.33
2022-11-22T08:16:33.261Z,1.46
2022-11-22T08:19:37.956Z,1.40
2022-11-22T08:22:41.976Z,1.58
2022-11-22T08:25:49.429Z,1.43
2022-11-22T08:28:52.344Z,1.62
2022-11-22T08:31:55.721Z,1.52
2022-11-22T08:34:58.192Z,1.52
2022-11-22T08:38:00.762Z,1.56
2022-11-22T08:41:04.315Z,1.65
2022-11-22T08:44:06.763Z,1.60
2022-11-22T08:47:09.205Z,1.73
2022-11-22T08:50:11.965Z,1.69
2022-11-22T08:53:15.037Z,1.82
2022-11-22T08:56:17.728Z,1.89
2022-11-22T08:59:20.984Z,1.83
2022-11-22T09:02:23.833Z,1.84
2022-11-22T09:05:26.607Z,1.86
2022-11-22T09:08:32.718Z,1.96
2022-11-22T09:11:38.593Z,1.97
2022-11-22T09:14:41.063Z,2.06
2022-11-22T09:17:44.376Z,1.92
2022-11-22T09:20:46.954Z,2.01
2022-11-22T09:23:50.672Z,2.11
2022-11-22T09:26:53.240Z,2.06
2022-11-22T09:29:56.063Z,2.23
2022-11-22T09:32:58.848Z,2.12
2022-11-22T09:36:04.304Z,2.15
2022-11-22T09:39:07.387Z,2.11
2022-11-22T09:42:13.134Z,2.20
2022-11-22T09:45:21.920Z,2.19
2022-11-22T09:49:10.231Z,2.16
2022-11-22T09:52:31.219Z,1.90
2022-11-22T09:55:42.007Z,2.23
2022-11-22T09:58:56.048Z,2.30
2022-11-22T10:02:26.780Z,2.28
2022-11-22T10:05:54.198Z,2.19
2022-11-22T10:09:22.991Z,2.27
2022-11-22T10:12:46.835Z,2.30
2022-11-22T10:15:59.560Z,2.24
2022-11-22T10:19:34.971Z,2.39
2022-11-22T10:22:39.394Z,2.58
2022-11-22T10:25:51.712Z,2.41
2022-11-22T10:29:18.103Z,2.56
2022-11-22T10:32:40.048Z,2.53
2022-11-22T10:35:56.676Z,2.54
2022-11-22T10:39:19.613Z,2.53
2022-11-22T10:42:52.541Z,2.55
2022-11-22T10:46:15.036Z,2.59
2022-11-22T10:49:41.465Z,2.70
2022-11-22T10:52:51.333Z,2.70
2022-11-22T10:55:58.547Z,2.73
2022-11-22T10:59:05.610Z,2.81
2022-11-22T11:02:41.290Z,2.80
2022-11-22T11:06:29.453Z,2.97
2022-11-22T11:10:12.153Z,2.98
2022-11-22T11:13:29.666Z,2.99
2022-11-22T11:16:37.507Z,2.80
2022-11-22T11:19:42.910Z,3.00
2022-11-22T11:23:17.079Z,2.94
2022-11-22T11:26:33.753Z,3.09
2022-11-22T11:29:42.600Z,3.03
2022-11-22T11:32:55.866Z,3.10
2022-11-22T11:36:22.665Z,3.33
2022-11-22T11:39:40.583Z,2.94
2022-11-22T11:42:47.717Z,3.00
2022-11-22T11:45:53.945Z,3.21
2022-11-22T11:49:11.592Z,3.16
2022-11-22T11:52:24.038Z,3.22
2022-11-22T11:55:32.354Z,3.28
2022-11-22T11:58:36.682Z,3.19
2022-11-22T12:01:56.608Z,3.18
2022-11-22T12:05:13.988Z,3.43
2022-11-22T12:08:32.001Z,3.52
2022-11-22T12:11:44.047Z,3.54
2022-11-22T12:15:11.151Z,3.52
2022-11-22T12:18:37.555Z,3.74
2022-11-22T12:21:46.084Z,3.67
2022-11-22T12:25:30.517Z,3.62
2022-11-22T12:28:22.950Z,3.58
2022-11-22T12:31:35.674Z,3.67
2022-11-22T12:35:02.439Z,3.55
2022-11-22T12:38:12.633Z,3.60
2022-11-22T12:41:17.224Z,3.45
2022-11-22T12:44:20.875Z,3.63
2022-11-22T12:47:27.039Z,3.52
2022-11-22T12:50:36.996Z,3.61
2022-11-22T12:53:42.494Z,3.72
2022-11-22T12:56:56.742Z,3.66
2022-11-22T13:00:04.409Z,3.81
2022-11-22T13:03:16.491Z,3.70
2022-11-22T13:06:23.192Z,3.59
2022-11-22T13:09:32.819Z,3.77
2022-11-22T13:12:38.686Z,3.66
2022-11-22T13:15:41.208Z,3.71
2022-11-22T13:18:57.024Z,3.62
2022-11-22T13:22:10.510Z,3.49
2022-11-22T13:25:32.046Z,3.52
2022-11-22T13:28:36.886Z,3.40
2022-11-22T13:32:04.507Z,3.57
2022-11-22T13:35:12.803Z,3.58
2022-11-22T13:38:17.488Z,3.40
2022-11-22T13:41:37.044Z,3.38
2022-11-22T13:44:52.477Z,3.52
2022-11-22T13:47:55.028Z,3.56
2022-11-22T13:50:59.528Z,3.48
2022-11-22T13:54:33.405Z,3.52
2022-11-22T13:57:40.226Z,3.48
2022-11-22T14:00:42.905Z,3.25
2022-11-22T14:03:45.394Z,3.37
2022-11-22T14:07:24.858Z,3.43
2022-11-22T14:10:34.562Z,3.44
2022-11-22T14:13:52.211Z,3.42
2022-11-22T14:17:06.616Z,3.30
2022-11-22T14:21:06.643Z,3.32
2022-11-22T14:24:08.997Z,3.30
2022-11-22T14:27:20.611Z,3.35
2022-11-22T14:30:38.207Z,3.27
2022-11-22T14:34:19.128Z,3.32
2022-11-22T14:37:34.892Z,3.27
2022-11-22T14:40:38.098Z,3.33
2022-11-22T14:43:41.398Z,3.22
2022-11-22T14:46:54.761Z,3.35
2022-11-22T14:49:57.442Z,3.19
2022-11-22T14:53:07.988Z,3.23
2022-11-22T14:56:18.916Z,3.34
2022-11-22T14:59:51.219Z,3.42
2022-11-22T15:02:59.719Z,3.43
2022-11-22T15:09:16.793Z,3.45
2022-11-22T15:09:53.529Z,3.34
2022-11-22T15:13:15.306Z,3.47
2022-11-22T15:58:01.231Z,3.25
2022-11-22T16:01:18.728Z,3.40
2022-11-22T16:04:27.802Z,3.41
2022-11-22T16:07:36.451Z,3.31
2022-11-22T16:10:42.788Z,3.29
2022-11-22T16:13:45.319Z,3.30
2022-11-22T16:16:47.911Z,3.29
2022-11-22T16:19:50.677Z,3.43
2022-11-22T16:23:26.031Z,3.29
2022-11-22T16:26:31.652Z,3.33
2022-11-22T16:29:35.923Z,3.31
2022-11-22T16:32:38.728Z,3.10
2022-11-22T16:35:41.132Z,3.23
2022-11-22T16:38:44.319Z,3.27
2022-11-22T16:41:47.543Z,3.28
2022-11-22T16:44:51.008Z,3.31
2022-11-22T16:48:16.725Z,3.41
2022-11-22T16:51:28.950Z,3.32
2022-11-22T16:54:32.638Z,3.25
2022-11-22T16:57:35.213Z,3.40
2022-11-22T17:00:37.980Z,3.46
2022-11-22T17:03:41.834Z,3.36
2022-11-22T17:06:44.832Z,3.55
2022-11-22T17:09:47.343Z,3.56
2022-11-22T17:12:49.903Z,3.50
2022-11-22T17:15:54.300Z,3.42
2022-11-22T17:18:58.640Z,3.44
2022-11-22T17:22:01.117Z,3.36
2022-11-22T17:25:04.203Z,3.40
2022-11-22T17:28:06.937Z,3.32
2022-11-22T17:31:12.904Z,3.36
2022-11-22T17:34:15.654Z,3.41
2022-11-22T17:37:18.387Z,3.43
2022-11-22T17:40:20.997Z,3.57
2022-11-22T17:43:23.628Z,3.43
2022-11-22T17:46:26.967Z,3.50
2022-11-22T17:49:30.335Z,3.56
2022-11-22T17:52:33.275Z,3.57
2022-11-22T17:56:02.811Z,3.49
2022-11-22T17:59:00.591Z,3.50
2022-11-22T18:02:03.485Z,3.63
2022-11-22T18:05:09.670Z,3.60
2022-11-22T18:08:12.343Z,3.66
2022-11-22T18:11:15.910Z,3.74
2022-11-22T18:14:18.528Z,3.73
2022-11-22T18:17:21.344Z,3.86
2022-11-22T18:20:23.934Z,3.88
2022-11-22T18:23:31.748Z,3.83
2022-11-22T18:26:40.041Z,3.73
2022-11-22T18:29:43.505Z,3.80
2022-11-22T18:32:46.280Z,3.82
2022-11-22T18:35:58.707Z,3.78
2022-11-22T18:39:01.368Z,4.27
2022-11-22T18:42:17.032Z,4.34
2022-11-22T18:45:19.900Z,4.09
2022-11-22T18:48:22.581Z,4.07
2022-11-22T18:51:25.332Z,4.20
2022-11-22T18:54:28.055Z,4.10
2022-11-22T18:57:30.859Z,3.98
2022-11-22T19:00:33.565Z,4.13
2022-11-22T19:03:37.420Z,4.08
2022-11-22T19:06:40.818Z,4.04
2022-11-22T19:09:43.679Z,3.83
2022-11-22T19:12:46.137Z,3.60
2022-11-22T19:15:49.110Z,3.59
2022-11-22T19:18:52.293Z,3.40
2022-11-22T19:21:55.217Z,3.54
2022-11-22T19:25:10.270Z,3.79
2022-11-22T19:28:12.990Z,3.86
2022-11-22T19:31:17.895Z,3.72
2022-11-22T19:34:20.621Z,3.68
2022-11-22T19:37:25.644Z,3.69
2022-11-22T19:40:28.373Z,3.90
2022-11-22T19:43:31.242Z,3.77
2022-11-22T19:46:34.306Z,3.61
2022-11-22T19:49:37.264Z,3.69
2022-11-22T19:52:39.885Z,3.74
2022-11-22T19:55:45.557Z,3.97
2022-11-22T19:58:55.300Z,3.94
2022-11-22T20:01:58.504Z,3.94
2022-11-22T20:05:01.196Z,3.93
2022-11-22T20:08:03.994Z,3.88
2022-11-22T20:11:09.130Z,3.86
2022-11-22T20:14:11.807Z,3.95
2022-11-22T20:17:14.489Z,3.98
2022-11-22T20:20:17.400Z,4.53
2022-11-22T20:23:20.272Z,4.48
2022-11-22T20:26:24.036Z,4.45
2022-11-22T20:29:26.730Z,4.27
2022-11-22T20:32:29.583Z,4.18
2022-11-22T20:35:32.263Z,3.98
2022-11-22T20:38:36.336Z,4.08
2022-11-22T20:41:39.658Z,4.39
2022-11-22T20:44:42.234Z,4.32
2022-11-22T20:47:45.020Z,4.32
2022-11-22T20:50:52.134Z,4.36
2022-11-22T20:53:55.313Z,4.49
2022-11-22T20:56:57.959Z,4.33
2022-11-22T21:00:00.656Z,4.07
2022-11-22T21:03:03.280Z,4.15
2022-11-22T21:06:05.918Z,3.99
2022-11-22T21:09:08.561Z,3.90
2022-11-22T21:12:11.103Z,3.83
2022-11-22T21:15:18.271Z,3.82
2022-11-22T21:18:25.955Z,3.84
2022-11-22T21:21:30.461Z,3.78
2022-11-22T21:24:33.062Z,3.88
2022-11-22T21:27:35.593Z,3.99
2022-11-22T21:30:38.021Z,3.97
2022-11-22T21:33:42.653Z,3.97
2022-11-22T21:36:45.338Z,3.97
2022-11-22T21:39:48.870Z,3.68
2022-11-22T21:42:51.279Z,3.80
2022-11-22T21:45:54.074Z,3.82
2022-11-22T21:48:56.819Z,3.91
2022-11-22T21:51:59.513Z,3.84
2022-11-22T21:55:02.085Z,3.95
2022-11-22T21:58:04.630Z,3.83
2022-11-22T22:01:13.570Z,3.88
2022-11-22T22:04:16.716Z,3.92
2022-11-22T22:07:44.765Z,3.88
2022-11-22T22:10:41.450Z,3.88
2022-11-22T22:13:43.844Z,3.94
2022-11-22T22:16:46.295Z,3.95
2022-11-22T22:19:49.552Z,3.87
2022-11-22T22:22:52.020Z,3.82
2022-11-22T22:25:59.370Z,3.98
2022-11-22T22:29:01.939Z,3.88
2022-11-22T22:32:10.219Z,4.01
2022-11-22T22:35:13.030Z,3.99
2022-11-22T22:38:15.496Z,3.94
2022-11-22T22:41:19.934Z,3.90
2022-11-22T22:44:22.336Z,3.89
2022-11-22T22:47:24.697Z,4.34
2022-11-22T22:50:27.075Z,4.21
2022-11-22T22:53:30.400Z,4.17
2022-11-22T22:56:33.965Z,4.36
2022-11-22T22:59:36.573Z,4.37
2022-11-22T23:02:39.077Z,4.36
2022-11-22T23:05:41.927Z,4.36
2022-11-22T23:08:46.727Z,4.38
2022-11-22T23:12:21.526Z,4.52
2022-11-22T23:15:43.917Z,4.57
2022-11-22T23:18:46.604Z,4.63
2022-11-22T23:21:49.628Z,4.51
2022-11-22T23:24:52.025Z,4.74
2022-11-22T23:27:54.532Z,4.63
2022-11-22T23:30:57.917Z,4.56
2022-11-22T23:34:01.544Z,4.74
2022-11-22T23:37:03.939Z,4.68
2022-11-22T23:40:07.021Z,4.64
2022-11-22T23:43:09.468Z,4.62
2022-11-22T23:46:16.190Z,4.60
2022-11-22T23:49:18.783Z,4.65
2022-11-22T23:52:21.355Z,4.72
2022-11-22T23:55:23.774Z,4.72
2022-11-22T23:58:30.133Z,4.87
